Comstock, MN (56525)

1:40 PM CDT on October 31, 2014 (GMT -0500)
South Fargo | Change Station
CLOSE
Current Station
Personal Weather Station
Location: Fargo, ND
Elevation: 902 ft
Nearby Weather Stations

Elev 902 ft 46.82 °N, 96.86 °W | Updated 1 minute ago

Clear
Clear
38.5 °F
Feels Like 38 °F
N
2.0
Wind Variable Wind from South
Gusts 7.0 mph

Today
High -- | Low -- °F
--% Chance of Precip.
Yesterday
High -- | Low -- °F
Precip. -- in
8:07 AM 6:12 PM
First Quarter, 57% visible
Pressure 30.54 in
Visibility 10.0 miles
Clouds Clear
Windchill 38 °F
Dew Point 17 °F
Humidity 42%
Rainfall -999.00 in
Snow Depth Not available.
UV 3 out of 12
Pollen .10 out of 12
Air Quality Not available.
Flu Activity Not available.
METAR KJKJ 311834Z AUTO 15006KT 10SM CLR 02/M07 A3054 RMK AO2

More Conditions Fewer Conditions

Pressure 30.54 in
Visibility 10.0 miles
Clouds Clear
Windchill 38 °F
Dew Point 17 °F
Humidity 42%
Rainfall -999.00 in
Snow Depth Not available.
UV 3 out of 12
Pollen .10 out of 12
Air Quality Not available.
Flu Activity Not available.
METAR KJKJ 311834Z AUTO 15006KT 10SM CLR 02/M07 A3054 RMK AO2

More Conditions Fewer Conditions

10-Day Weather Forecast

Almanac

Astronomy

Oct. 31, 2014 Rise Set
Actual Time
Civil Twilight
Nautical Twilight
Astronomical Twilight
Moon
Length of Visible Light
Length of Day
Tomorrow will be .
, % of the Moon is Illuminated

Today's Extremes

State Highs State Lows

Community

WunderPhotos

Upload Photos

1,766,690 photos uploaded!

WunderBlogs® & News

Nearby

Air Quality

  Air Quality AQ Index Pollutant
Not available.

Snow Depth

Station Depth Elevation

Earthquake Activity

City Distance Mag. Time & Date
Minimum magnitude displayed is 2.5.

Coastal Water Temperatures

Place Temperature

Nearby Weather Stations